createdAt,value
2022-07-28T00:02:14.885Z,7.45
2022-07-28T00:04:45.216Z,7.18
2022-07-28T00:07:15.673Z,6.43
2022-07-28T00:09:45.877Z,6.25
2022-07-28T00:12:16.216Z,6.05
2022-07-28T00:14:46.721Z,6.13
2022-07-28T00:17:18.051Z,6.13
2022-07-28T00:19:49.102Z,7.53
2022-07-28T00:22:19.909Z,5.25
2022-07-28T00:24:50.269Z,6.28
2022-07-28T00:27:20.901Z,4.93
2022-07-28T00:29:51.308Z,6.15
2022-07-28T00:32:22.963Z,5.60
2022-07-28T00:34:53.521Z,5.30
2022-07-28T00:37:24.905Z,5.10
2022-07-28T00:39:56.625Z,6.32
2022-07-28T00:42:26.898Z,7.10
2022-07-28T00:44:57.901Z,7.22
2022-07-28T00:47:28.269Z,7.35
2022-07-28T00:50:07.340Z,7.10
2022-07-28T00:52:38.064Z,7.07
2022-07-28T00:55:08.710Z,6.28
2022-07-28T00:57:39.133Z,7.65
2022-07-28T01:00:10.132Z,8.95
2022-07-28T01:02:40.570Z,8.13
2022-07-28T01:05:11.949Z,7.65
2022-07-28T01:08:02.335Z,6.13
2022-07-28T01:10:49.200Z,8.05
2022-07-28T01:13:41.541Z,7.35
2022-07-28T01:16:12.300Z,7.72
2022-07-28T01:18:57.307Z,7.43
2022-07-28T01:21:34.867Z,8.25
2022-07-28T01:24:16.742Z,8.50
2022-07-28T01:27:00.712Z,7.38
2022-07-28T01:30:01.152Z,7.55
2022-07-28T01:32:52.712Z,8.23
2022-07-28T01:35:29.452Z,7.50
2022-07-28T01:38:05.916Z,7.72
2022-07-28T01:40:39.233Z,8.77
2022-07-28T01:43:14.288Z,8.25
2022-07-28T01:45:47.584Z,9.93
2022-07-28T01:48:20.917Z,10.07
2022-07-28T01:50:55.774Z,10.45
2022-07-28T01:53:27.589Z,10.25
2022-07-28T01:55:58.719Z,9.82
2022-07-28T01:58:31.213Z,10.52
2022-07-28T02:01:03.460Z,7.75
2022-07-28T02:03:36.715Z,8.10
2022-07-28T02:06:08.875Z,9.45
2022-07-28T02:08:42.194Z,9.73
2022-07-28T02:11:25.216Z,11.65
2022-07-28T02:13:57.668Z,10.75
2022-07-28T02:16:29.937Z,11.13
2022-07-28T02:19:01.699Z,9.85
2022-07-28T02:21:36.378Z,9.75
2022-07-28T02:24:08.841Z,10.10
2022-07-28T02:26:43.966Z,9.30
2022-07-28T02:29:48.004Z,11.73
2022-07-28T02:32:26.840Z,11.27
2022-07-28T02:35:14.109Z,11.20
2022-07-28T02:37:52.404Z,11.95
2022-07-28T02:40:25.582Z,12.52
2022-07-28T02:42:57.605Z,11.27
2022-07-28T02:45:30.661Z,10.23
2022-07-28T02:48:07.691Z,9.18
2022-07-28T02:50:38.116Z,8.95
2022-07-28T02:53:14.985Z,10.27
2022-07-28T02:55:50.271Z,8.98
2022-07-28T02:58:23.886Z,10.23
2022-07-28T03:00:56.384Z,8.45
2022-07-28T03:03:27.231Z,11.98
2022-07-28T03:05:57.944Z,11.93
2022-07-28T03:08:28.752Z,12.65
2022-07-28T03:11:14.518Z,12.68
2022-07-28T03:13:45.055Z,13.02
2022-07-28T03:16:16.222Z,11.82
2022-07-28T03:18:46.621Z,13.13
2022-07-28T03:21:17.470Z,12.77
2022-07-28T03:23:52.434Z,12.15
2022-07-28T03:26:46.649Z,12.18
2022-07-28T03:29:19.548Z,12.55
2022-07-28T03:31:51.210Z,13.43
2022-07-28T03:34:21.761Z,13.48
2022-07-28T03:37:00.060Z,12.82
2022-07-28T03:39:34.176Z,12.73
2022-07-28T03:42:06.213Z,13.15
2022-07-28T03:44:37.547Z,15.52
2022-07-28T03:47:08.281Z,18.63
2022-07-28T03:49:38.665Z,16.27
2022-07-28T03:53:57.196Z,15.93
2022-07-28T03:56:27.955Z,15.88
2022-07-28T03:58:58.387Z,16.52
2022-07-28T04:01:28.966Z,15.30
2022-07-28T04:03:59.421Z,17.27
2022-07-28T04:06:29.782Z,16.10
2022-07-28T04:09:00.494Z,16.20
2022-07-28T04:11:30.903Z,15.70
2022-07-28T04:14:01.189Z,18.02
2022-07-28T04:16:31.812Z,19.48
2022-07-28T04:19:02.359Z,17.92
2022-07-28T04:21:32.663Z,17.88
2022-07-28T04:24:02.961Z,18.63
2022-07-28T04:26:33.300Z,18.95
2022-07-28T04:29:03.751Z,20.05
2022-07-28T04:31:34.251Z,15.40
2022-07-28T04:34:04.745Z,18.45
2022-07-28T04:36:35.030Z,15.82
2022-07-28T04:39:05.459Z,16.45
2022-07-28T04:41:36.977Z,17.90
2022-07-28T04:44:07.546Z,15.65
2022-07-28T04:46:37.889Z,14.10
2022-07-28T04:49:09.638Z,15.07
2022-07-28T04:51:40.093Z,12.63
2022-07-28T04:54:10.847Z,12.45
2022-07-28T04:56:41.348Z,14.60
2022-07-28T04:59:11.765Z,12.23
2022-07-28T05:01:45.345Z,13.15
2022-07-28T05:04:16.052Z,15.05
2022-07-28T05:06:46.517Z,15.77
2022-07-28T05:09:17.117Z,14.65
2022-07-28T05:11:47.544Z,14.00
2022-07-28T05:14:18.127Z,13.68
2022-07-28T05:16:48.965Z,14.07
2022-07-28T05:19:20.100Z,14.63
2022-07-28T05:21:50.508Z,13.52
2022-07-28T05:24:20.795Z,14.88
2022-07-28T05:26:51.253Z,14.88
2022-07-28T05:29:21.585Z,13.52
2022-07-28T05:31:51.884Z,15.00
2022-07-28T05:34:22.418Z,18.50
2022-07-28T05:36:52.908Z,18.85
2022-07-28T05:39:23.206Z,17.02
2022-07-28T05:41:53.641Z,15.60
2022-07-28T05:44:24.006Z,17.90
2022-07-28T05:46:54.700Z,18.02
2022-07-28T05:49:25.787Z,16.77
2022-07-28T05:51:56.445Z,17.98
2022-07-28T05:54:26.792Z,19.17
2022-07-28T05:56:57.210Z,16.98
2022-07-28T05:59:27.697Z,15.60
2022-07-28T06:01:58.108Z,14.13
2022-07-28T06:04:29.010Z,10.88
2022-07-28T06:07:00.287Z,8.00
2022-07-28T06:09:30.580Z,8.63
2022-07-28T06:12:04.330Z,9.52
2022-07-28T06:14:36.973Z,9.93
2022-07-28T06:17:07.478Z,8.18
2022-07-28T06:19:37.801Z,9.30
2022-07-28T06:22:08.691Z,10.18
2022-07-28T06:24:39.340Z,10.18
2022-07-28T06:27:09.737Z,10.77
2022-07-28T06:29:40.562Z,11.70
2022-07-28T06:32:11.214Z,10.25
2022-07-28T06:34:41.550Z,8.90
2022-07-28T06:37:11.936Z,9.35
2022-07-28T06:39:42.206Z,6.88
2022-07-28T06:42:13.509Z,6.72
2022-07-28T06:44:58.410Z,5.90
2022-07-28T06:47:29.651Z,7.03
2022-07-28T06:49:59.995Z,6.82
2022-07-28T06:52:30.734Z,6.70
2022-07-28T06:55:02.505Z,5.13
2022-07-28T06:57:34.069Z,4.75
2022-07-28T07:00:09.006Z,4.78
2022-07-28T07:02:43.746Z,4.65
2022-07-28T07:05:15.113Z,3.17
2022-07-28T07:07:45.632Z,3.80
2022-07-28T07:10:16.000Z,3.55
2022-07-28T07:12:46.500Z,3.38
2022-07-28T07:15:16.856Z,2.42
2022-07-28T07:17:52.914Z,3.08
2022-07-28T07:20:23.353Z,2.60
2022-07-28T07:22:53.745Z,2.63
2022-07-28T07:25:24.320Z,2.80
2022-07-28T07:27:54.703Z,4.20
2022-07-28T07:30:25.343Z,3.70
2022-07-28T07:32:55.963Z,3.47
2022-07-28T07:35:26.394Z,3.40
2022-07-28T07:37:58.026Z,3.15
2022-07-28T07:40:29.076Z,2.85
2022-07-28T07:42:59.327Z,3.85
2022-07-28T07:45:30.131Z,3.38
2022-07-28T07:48:00.479Z,3.72
2022-07-28T07:50:31.518Z,3.35
2022-07-28T07:53:02.973Z,2.83
2022-07-28T07:55:36.294Z,3.58
2022-07-28T07:58:08.680Z,3.67
2022-07-28T08:00:39.380Z,2.22
2022-07-28T08:03:11.261Z,2.55
2022-07-28T08:05:42.140Z,2.38
2022-07-28T08:08:12.927Z,3.33
2022-07-28T08:10:43.734Z,6.32
2022-07-28T08:13:14.753Z,8.50
2022-07-28T08:15:45.568Z,8.88
2022-07-28T08:18:15.933Z,7.85
2022-07-28T08:20:46.296Z,8.18
2022-07-28T08:23:16.655Z,8.23
2022-07-28T08:25:46.960Z,8.05
2022-07-28T08:28:17.252Z,7.80
2022-07-28T08:30:47.774Z,7.30
2022-07-28T08:33:18.051Z,6.90
2022-07-28T08:35:49.475Z,7.22
2022-07-28T08:38:19.881Z,5.53
2022-07-28T08:40:54.071Z,7.07
2022-07-28T08:43:36.872Z,7.28
2022-07-28T08:46:08.759Z,5.70
2022-07-28T08:48:41.852Z,7.22
2022-07-28T08:51:14.610Z,6.25
2022-07-28T08:53:46.569Z,5.55
2022-07-28T08:56:19.556Z,6.65
2022-07-28T08:58:50.066Z,6.20
2022-07-28T09:01:20.917Z,5.78
2022-07-28T09:03:52.270Z,7.22
2022-07-28T09:06:26.345Z,6.80
2022-07-28T09:08:56.613Z,7.20
2022-07-28T09:11:27.163Z,5.90
2022-07-28T09:13:57.493Z,5.38
2022-07-28T09:16:27.944Z,5.63
2022-07-28T09:18:58.486Z,5.07
2022-07-28T09:21:29.459Z,4.13
2022-07-28T09:24:00.561Z,5.25
2022-07-28T09:26:31.790Z,4.63
2022-07-28T09:29:04.494Z,5.18
2022-07-28T09:31:34.963Z,6.80
2022-07-28T09:34:08.346Z,6.03
2022-07-28T09:36:44.039Z,5.38
2022-07-28T09:39:14.387Z,5.13
2022-07-28T09:41:57.443Z,4.75
2022-07-28T09:44:29.679Z,4.68
2022-07-28T09:47:00.441Z,5.55
2022-07-28T09:49:45.448Z,5.22
2022-07-28T09:52:16.113Z,5.38
2022-07-28T09:55:04.154Z,5.47
2022-07-28T09:57:39.617Z,4.18
2022-07-28T10:00:14.640Z,3.30
2022-07-28T10:02:53.633Z,4.50
2022-07-28T10:05:24.501Z,4.60
2022-07-28T10:07:55.126Z,4.68
2022-07-28T10:10:26.046Z,5.28
2022-07-28T10:13:08.572Z,4.15
2022-07-28T10:15:56.014Z,3.67
2022-07-28T10:18:26.718Z,4.10
2022-07-28T10:20:57.684Z,4.22
2022-07-28T10:23:28.352Z,4.00
2022-07-28T10:26:01.394Z,3.53
2022-07-28T10:28:33.742Z,3.45
2022-07-28T10:31:05.334Z,3.63
2022-07-28T10:33:36.967Z,4.45
2022-07-28T10:36:07.752Z,3.78
2022-07-28T10:38:42.288Z,4.53
2022-07-28T10:41:14.968Z,3.55
2022-07-28T10:43:49.682Z,4.18
2022-07-28T10:46:20.470Z,4.47
2022-07-28T10:48:51.141Z,4.57
2022-07-28T10:51:28.278Z,4.13
2022-07-28T10:54:31.621Z,3.27
2022-07-28T10:57:04.896Z,4.22
2022-07-28T11:00:12.700Z,3.90
2022-07-28T11:02:58.997Z,4.80
2022-07-28T11:05:44.742Z,3.92
2022-07-28T11:08:31.638Z,3.22
2022-07-28T11:11:09.171Z,4.55
2022-07-28T11:13:41.389Z,3.92
2022-07-28T11:16:23.984Z,3.67
2022-07-28T11:19:37.998Z,4.25
2022-07-28T11:22:29.526Z,4.07
2022-07-28T11:25:20.534Z,4.63
2022-07-28T11:28:06.686Z,4.28
2022-07-28T11:30:57.054Z,3.95
2022-07-28T11:33:29.662Z,4.95
2022-07-28T11:36:02.217Z,5.13
2022-07-28T11:38:32.854Z,8.23
2022-07-28T11:41:03.186Z,7.13
2022-07-28T11:43:37.374Z,5.53
2022-07-28T11:46:27.881Z,5.70
2022-07-28T11:49:17.113Z,4.68
2022-07-28T11:52:15.457Z,10.27
2022-07-28T11:54:53.312Z,10.18
2022-07-28T11:57:26.229Z,7.75
2022-07-28T11:59:59.648Z,9.75
2022-07-28T12:02:31.786Z,8.38
2022-07-28T12:05:05.656Z,6.07
2022-07-28T12:07:39.571Z,5.03
2022-07-28T12:10:56.373Z,7.68
2022-07-28T12:13:30.892Z,7.20
2022-07-28T12:16:03.906Z,8.43
2022-07-28T12:18:34.224Z,8.35
2022-07-28T12:21:05.813Z,6.70
2022-07-28T12:23:46.298Z,7.88
2022-07-28T12:26:34.533Z,6.50
2022-07-28T12:29:15.630Z,5.10
2022-07-28T12:32:04.994Z,6.90
2022-07-28T12:34:37.513Z,7.63
2022-07-28T12:37:11.727Z,6.80
2022-07-28T12:39:44.363Z,7.65
2022-07-28T12:42:15.713Z,7.38
2022-07-28T12:44:51.197Z,7.68
2022-07-28T12:47:30.212Z,7.57
2022-07-28T12:50:16.318Z,8.40
2022-07-28T12:53:04.514Z,7.35
2022-07-28T12:55:36.866Z,8.50
2022-07-28T12:58:08.236Z,7.20
2022-07-28T13:00:39.641Z,7.75
2022-07-28T13:03:27.082Z,7.25
2022-07-28T13:06:06.543Z,6.20
2022-07-28T13:08:49.155Z,6.30
2022-07-28T13:11:42.835Z,7.07
2022-07-28T13:14:10.429Z,6.68
2022-07-28T13:16:40.808Z,7.03
2022-07-28T13:19:23.121Z,6.80
2022-07-28T13:22:02.901Z,7.30
2022-07-28T13:24:35.857Z,8.95
2022-07-28T13:27:06.908Z,8.00
2022-07-28T13:29:38.164Z,7.72
2022-07-28T13:32:09.341Z,7.22
2022-07-28T13:34:40.686Z,7.65
2022-07-28T13:37:12.053Z,7.78
2022-07-28T13:39:43.209Z,8.60
2022-07-28T13:42:13.654Z,9.20
2022-07-28T13:44:44.174Z,10.70
2022-07-28T13:47:16.565Z,10.40
2022-07-28T13:49:51.356Z,10.18
2022-07-28T13:52:32.990Z,9.68
2022-07-28T13:55:07.971Z,9.30
2022-07-28T13:57:43.132Z,9.65
2022-07-28T14:00:14.282Z,9.48
2022-07-28T14:02:45.144Z,8.18
2022-07-28T14:05:16.504Z,9.07
2022-07-28T14:07:48.661Z,7.78
2022-07-28T14:10:20.608Z,8.32
2022-07-28T14:13:00.202Z,8.65
2022-07-28T14:15:30.749Z,8.55
2022-07-28T14:18:01.022Z,8.13
2022-07-28T14:20:31.521Z,8.75
2022-07-28T14:23:02.831Z,7.60
2022-07-28T14:25:48.296Z,9.27
2022-07-28T14:28:19.639Z,8.50
2022-07-28T14:30:50.412Z,8.32
2022-07-28T14:33:20.987Z,8.80
2022-07-28T14:35:53.993Z,9.65
2022-07-28T14:41:18.173Z,12.50
2022-07-28T14:43:49.336Z,11.18
2022-07-28T14:46:21.909Z,11.90
2022-07-28T14:48:52.600Z,11.90
2022-07-28T14:51:23.176Z,12.68
2022-07-28T14:53:53.500Z,11.27
2022-07-28T14:56:23.776Z,11.15
2022-07-28T14:58:54.160Z,9.20
2022-07-28T15:01:24.614Z,9.18
2022-07-28T15:03:54.945Z,8.48
2022-07-28T15:06:25.308Z,9.52
2022-07-28T15:08:57.682Z,9.25
2022-07-28T15:11:29.133Z,9.48
2022-07-28T15:13:59.429Z,7.07
2022-07-28T15:16:30.494Z,7.10
2022-07-28T15:19:01.024Z,7.40
2022-07-28T15:21:36.356Z,6.20
2022-07-28T15:24:07.427Z,8.23
2022-07-28T15:26:37.986Z,6.45
2022-07-28T15:29:10.140Z,4.95
2022-07-28T15:31:45.580Z,6.03
2022-07-28T15:34:18.746Z,5.70
2022-07-28T15:36:49.711Z,5.65
2022-07-28T15:39:21.610Z,5.88
2022-07-28T15:41:52.987Z,6.22
2022-07-28T15:44:26.211Z,6.63
2022-07-28T15:46:56.863Z,6.47
2022-07-28T15:49:29.320Z,6.80
2022-07-28T15:52:00.878Z,6.88
2022-07-28T15:54:32.158Z,6.72
2022-07-28T15:57:02.747Z,6.97
2022-07-28T15:59:49.371Z,5.60
2022-07-28T16:02:21.715Z,6.05
2022-07-28T16:04:54.335Z,5.95
2022-07-28T16:07:25.865Z,6.30
2022-07-28T16:09:57.650Z,7.05
2022-07-28T16:12:29.127Z,7.30
2022-07-28T16:14:59.432Z,6.45
2022-07-28T16:17:29.752Z,7.10
2022-07-28T16:20:02.511Z,7.00
2022-07-28T16:22:34.125Z,7.18
2022-07-28T16:25:04.426Z,6.53
2022-07-28T16:27:35.793Z,6.90
2022-07-28T16:30:08.147Z,7.70
2022-07-28T16:32:42.999Z,7.18
2022-07-28T16:35:14.811Z,6.78
2022-07-28T16:37:45.220Z,7.07
2022-07-28T16:40:15.752Z,6.82
2022-07-28T16:42:47.899Z,6.75
2022-07-28T16:45:19.114Z,7.80
2022-07-28T16:47:49.461Z,8.05
2022-07-28T16:50:20.983Z,7.15
2022-07-28T16:52:51.769Z,9.00
2022-07-28T16:55:24.799Z,7.40
2022-07-28T16:57:55.828Z,6.93
2022-07-28T17:00:28.031Z,5.95
2022-07-28T17:02:58.402Z,7.03
2022-07-28T17:05:28.679Z,6.40
2022-07-28T17:08:00.450Z,5.85
2022-07-28T17:10:30.821Z,7.22
2022-07-28T17:13:01.581Z,8.18
2022-07-28T17:15:32.026Z,7.90
2022-07-28T17:18:02.392Z,6.13
2022-07-28T17:20:32.812Z,7.05
2022-07-28T17:23:03.223Z,6.70
2022-07-28T17:28:24.456Z,7.63
2022-07-28T17:30:54.941Z,8.80
2022-07-28T17:33:25.388Z,7.50
2022-07-28T17:35:58.074Z,7.35
2022-07-28T17:38:33.204Z,7.75
2022-07-28T17:41:06.679Z,7.68
2022-07-28T17:43:42.367Z,8.38
2022-07-28T17:46:15.665Z,7.88
2022-07-28T17:48:46.466Z,6.95
2022-07-28T17:51:16.872Z,7.55
2022-07-28T17:53:48.037Z,7.97
2022-07-28T17:56:20.164Z,8.70
2022-07-28T17:58:52.432Z,6.43
2022-07-28T18:01:22.860Z,6.40
2022-07-28T18:03:58.024Z,6.75
2022-07-28T18:06:36.316Z,6.78
2022-07-28T18:09:09.779Z,6.85
2022-07-28T18:11:56.808Z,7.88
2022-07-28T18:14:30.809Z,6.95
2022-07-28T18:17:02.040Z,6.47
2022-07-28T18:19:32.753Z,8.05
2022-07-28T18:22:03.240Z,6.85
2022-07-28T18:24:34.018Z,7.05
2022-07-28T18:27:04.790Z,9.65
2022-07-28T18:29:38.390Z,9.45
2022-07-28T18:32:10.806Z,10.18
2022-07-28T18:34:43.287Z,10.05
2022-07-28T18:37:14.944Z,13.23
2022-07-28T18:39:45.467Z,16.23
2022-07-28T18:42:15.873Z,18.50
2022-07-28T18:44:46.295Z,18.80
2022-07-28T18:47:16.666Z,21.33
2022-07-28T18:49:47.032Z,25.50
2022-07-28T18:52:17.545Z,21.27
2022-07-28T18:54:48.094Z,20.35
2022-07-28T18:57:19.231Z,18.17
2022-07-28T18:59:52.235Z,17.55
2022-07-28T19:02:23.015Z,16.30
2022-07-28T19:04:56.886Z,13.45
2022-07-28T19:07:27.087Z,14.00
2022-07-28T19:09:57.489Z,12.75
2022-07-28T19:12:31.378Z,12.82
2022-07-28T19:15:02.296Z,13.05
2022-07-28T19:17:33.778Z,13.95
2022-07-28T19:20:04.157Z,11.18
2022-07-28T19:22:34.619Z,9.68
2022-07-28T19:25:05.790Z,10.65
2022-07-28T19:27:38.407Z,9.90
2022-07-28T19:30:10.352Z,9.30
2022-07-28T19:32:43.775Z,10.10
2022-07-28T19:35:15.725Z,9.45
2022-07-28T19:37:46.811Z,10.52
2022-07-28T19:40:17.088Z,10.32
2022-07-28T19:42:49.104Z,10.00
2022-07-28T19:45:19.545Z,11.55
2022-07-28T19:47:50.919Z,12.63
2022-07-28T19:50:21.385Z,10.48
2022-07-28T19:52:52.160Z,12.07
2022-07-28T19:55:22.459Z,10.93
2022-07-28T19:57:52.865Z,10.13
2022-07-28T20:00:24.031Z,9.63
2022-07-28T20:02:54.529Z,10.27
2022-07-28T20:05:25.055Z,10.27
2022-07-28T20:07:56.492Z,8.68
2022-07-28T20:10:27.008Z,10.18
2022-07-28T20:12:57.285Z,8.27
2022-07-28T20:15:28.247Z,9.63
2022-07-28T20:17:58.732Z,7.85
2022-07-28T20:20:29.056Z,7.75
2022-07-28T20:23:00.065Z,7.68
2022-07-28T20:25:30.626Z,8.45
2022-07-28T20:28:00.964Z,7.28
2022-07-28T20:30:32.614Z,8.95
2022-07-28T20:33:04.454Z,7.60
2022-07-28T20:35:36.501Z,7.65
2022-07-28T20:38:08.045Z,7.22
2022-07-28T20:40:38.686Z,7.10
2022-07-28T20:43:09.024Z,7.57
2022-07-28T20:45:39.275Z,8.38
2022-07-28T20:48:09.790Z,8.20
2022-07-28T20:50:45.470Z,7.93
2022-07-28T20:53:15.733Z,8.48
2022-07-28T20:55:46.738Z,8.20
2022-07-28T20:58:17.049Z,8.15
2022-07-28T21:00:48.710Z,8.13
2022-07-28T21:03:19.138Z,7.85
2022-07-28T21:05:49.435Z,8.13
2022-07-28T21:08:20.367Z,6.32
2022-07-28T21:10:51.137Z,6.93
2022-07-28T21:13:21.467Z,7.63
2022-07-28T21:15:51.760Z,7.05
2022-07-28T21:18:24.903Z,7.10
2022-07-28T21:20:55.180Z,7.30
2022-07-28T21:23:26.256Z,7.05
2022-07-28T21:25:56.480Z,8.18
2022-07-28T21:28:39.747Z,8.27
2022-07-28T21:31:10.716Z,7.38
2022-07-28T21:33:41.492Z,7.15
2022-07-28T21:36:11.686Z,6.72
2022-07-28T21:38:42.063Z,7.25
2022-07-28T21:41:12.939Z,7.47
2022-07-28T21:43:44.127Z,7.30
2022-07-28T21:46:14.478Z,7.80
2022-07-28T21:48:44.960Z,8.32
2022-07-28T21:51:19.293Z,7.25
2022-07-28T21:53:53.066Z,8.23
2022-07-28T21:56:23.400Z,8.55
2022-07-28T21:58:53.731Z,7.93
2022-07-28T22:01:24.676Z,7.93
2022-07-28T22:03:55.413Z,8.93
2022-07-28T22:06:25.988Z,7.00
2022-07-28T22:08:56.223Z,8.35
2022-07-28T22:11:26.668Z,7.80
2022-07-28T22:13:56.942Z,8.50
2022-07-28T22:16:27.104Z,8.65
2022-07-28T22:18:57.441Z,8.07
2022-07-28T22:21:27.668Z,8.82
2022-07-28T22:23:58.480Z,8.60
2022-07-28T22:26:28.746Z,7.68
2022-07-28T22:28:58.983Z,7.95
2022-07-28T22:31:29.355Z,7.63
2022-07-28T22:34:00.529Z,7.05
2022-07-28T22:36:30.835Z,7.00
2022-07-28T22:39:01.272Z,7.38
2022-07-28T22:41:31.671Z,9.07
2022-07-28T22:44:01.923Z,7.65
2022-07-28T22:46:32.356Z,8.40
2022-07-28T22:49:02.630Z,7.80
2022-07-28T22:51:33.405Z,9.55
2022-07-28T22:54:04.334Z,7.78
2022-07-28T22:56:37.250Z,7.40
2022-07-28T22:59:09.408Z,8.48
2022-07-28T23:01:43.810Z,7.70
2022-07-28T23:04:17.304Z,8.82
2022-07-28T23:06:48.851Z,8.35
2022-07-28T23:09:21.581Z,7.35
2022-07-28T23:11:56.126Z,8.07
2022-07-28T23:14:29.414Z,7.40
2022-07-28T23:16:59.861Z,8.15
2022-07-28T23:19:30.384Z,8.52
2022-07-28T23:22:03.008Z,9.48
2022-07-28T23:24:33.271Z,9.98
2022-07-28T23:27:03.475Z,10.40
2022-07-28T23:29:33.827Z,8.40
2022-07-28T23:32:04.332Z,9.75
2022-07-28T23:34:34.708Z,10.68
2022-07-28T23:37:05.763Z,11.38
2022-07-28T23:39:35.988Z,9.65
2022-07-28T23:42:06.396Z,9.50
2022-07-28T23:44:36.659Z,10.27
2022-07-28T23:47:07.066Z,10.20
2022-07-28T23:49:37.457Z,10.80
2022-07-28T23:52:08.085Z,9.07
2022-07-28T23:54:38.417Z,10.85
2022-07-28T23:57:08.724Z,10.05
2022-07-28T23:59:38.977Z,9.55
